sensor_id;sensor_type;location;lat;lon;timestamp;P1;durP1;ratioP1;P2;durP2;ratioP2
10347;SDS011;5220;43.192;23.284;2024-02-21T00:02:23;43.78;;;29.27;;
10347;SDS011;5220;43.192;23.284;2024-02-21T00:04:50;15.13;;;11.05;;
10347;SDS011;5220;43.192;23.284;2024-02-21T00:07:16;10.80;;;8.90;;
10347;SDS011;5220;43.192;23.284;2024-02-21T00:09:43;9.35;;;8.10;;
10347;SDS011;5220;43.192;23.284;2024-02-21T00:12:10;9.80;;;8.10;;
10347;SDS011;5220;43.192;23.284;2024-02-21T00:14:38;11.35;;;8.48;;
10347;SDS011;5220;43.192;23.284;2024-02-21T00:17:05;11.98;;;10.00;;
10347;SDS011;5220;43.192;23.284;2024-02-21T00:19:34;11.25;;;8.95;;
10347;SDS011;5220;43.192;23.284;2024-02-21T00:22:01;12.77;;;8.75;;
10347;SDS011;5220;43.192;23.284;2024-02-21T00:24:28;13.63;;;9.30;;
10347;SDS011;5220;43.192;23.284;2024-02-21T00:26:55;10.95;;;9.40;;
10347;SDS011;5220;43.192;23.284;2024-02-21T00:29:21;13.43;;;10.40;;
10347;SDS011;5220;43.192;23.284;2024-02-21T00:31:48;13.18;;;10.27;;
10347;SDS011;5220;43.192;23.284;2024-02-21T00:34:15;12.45;;;9.48;;
10347;SDS011;5220;43.192;23.284;2024-02-21T00:36:43;11.10;;;9.27;;
10347;SDS011;5220;43.192;23.284;2024-02-21T00:39:10;9.82;;;7.63;;
10347;SDS011;5220;43.192;23.284;2024-02-21T00:41:37;9.00;;;7.85;;
10347;SDS011;5220;43.192;23.284;2024-02-21T00:44:03;9.85;;;7.53;;
10347;SDS011;5220;43.192;23.284;2024-02-21T00:46:31;9.68;;;7.93;;
10347;SDS011;5220;43.192;23.284;2024-02-21T00:48:58;10.15;;;8.70;;
10347;SDS011;5220;43.192;23.284;2024-02-21T00:51:24;11.80;;;8.23;;
10347;SDS011;5220;43.192;23.284;2024-02-21T00:53:52;10.10;;;8.10;;
10347;SDS011;5220;43.192;23.284;2024-02-21T00:56:19;10.32;;;8.98;;
10347;SDS011;5220;43.192;23.284;2024-02-21T00:58:46;10.70;;;8.52;;
10347;SDS011;5220;43.192;23.284;2024-02-21T01:01:12;11.20;;;8.70;;
10347;SDS011;5220;43.192;23.284;2024-02-21T01:03:39;15.05;;;10.25;;
10347;SDS011;5220;43.192;23.284;2024-02-21T01:06:06;12.07;;;9.00;;
10347;SDS011;5220;43.192;23.284;2024-02-21T01:08:33;10.63;;;8.07;;
10347;SDS011;5220;43.192;23.284;2024-02-21T01:11:01;12.73;;;9.07;;
10347;SDS011;5220;43.192;23.284;2024-02-21T01:13:27;11.07;;;8.43;;
10347;SDS011;5220;43.192;23.284;2024-02-21T01:15:54;11.57;;;8.50;;
10347;SDS011;5220;43.192;23.284;2024-02-21T01:18:21;9.88;;;8.10;;
10347;SDS011;5220;43.192;23.284;2024-02-21T01:20:47;9.38;;;7.38;;
10347;SDS011;5220;43.192;23.284;2024-02-21T01:23:14;9.73;;;7.10;;
10347;SDS011;5220;43.192;23.284;2024-02-21T01:25:41;8.85;;;7.38;;
10347;SDS011;5220;43.192;23.284;2024-02-21T01:28:09;11.02;;;8.25;;
10347;SDS011;5220;43.192;23.284;2024-02-21T01:30:35;11.90;;;8.50;;
10347;SDS011;5220;43.192;23.284;2024-02-21T01:33:02;9.02;;;7.65;;
10347;SDS011;5220;43.192;23.284;2024-02-21T01:35:29;11.52;;;8.90;;
10347;SDS011;5220;43.192;23.284;2024-02-21T01:37:56;10.77;;;8.25;;
10347;SDS011;5220;43.192;23.284;2024-02-21T01:40:23;10.48;;;7.85;;
10347;SDS011;5220;43.192;23.284;2024-02-21T01:42:49;8.60;;;7.72;;
10347;SDS011;5220;43.192;23.284;2024-02-21T01:45:20;8.43;;;7.05;;
10347;SDS011;5220;43.192;23.284;2024-02-21T01:47:47;8.02;;;7.10;;
10347;SDS011;5220;43.192;23.284;2024-02-21T01:50:14;9.27;;;7.38;;
10347;SDS011;5220;43.192;23.284;2024-02-21T01:52:41;8.32;;;7.18;;
10347;SDS011;5220;43.192;23.284;2024-02-21T01:55:09;9.55;;;7.35;;
10347;SDS011;5220;43.192;23.284;2024-02-21T01:57:38;7.55;;;6.75;;
10347;SDS011;5220;43.192;23.284;2024-02-21T02:00:05;9.40;;;6.75;;
10347;SDS011;5220;43.192;23.284;2024-02-21T02:02:35;6.53;;;5.55;;
10347;SDS011;5220;43.192;23.284;2024-02-21T02:05:04;9.07;;;7.03;;
10347;SDS011;5220;43.192;23.284;2024-02-21T02:07:31;9.68;;;7.32;;
10347;SDS011;5220;43.192;23.284;2024-02-21T02:09:58;8.70;;;6.88;;
10347;SDS011;5220;43.192;23.284;2024-02-21T02:12:25;9.07;;;6.18;;
10347;SDS011;5220;43.192;23.284;2024-02-21T02:14:57;8.68;;;5.65;;
10347;SDS011;5220;43.192;23.284;2024-02-21T02:17:24;10.32;;;8.32;;
10347;SDS011;5220;43.192;23.284;2024-02-21T02:19:52;9.52;;;6.75;;
10347;SDS011;5220;43.192;23.284;2024-02-21T02:22:20;6.72;;;5.55;;
10347;SDS011;5220;43.192;23.284;2024-02-21T02:24:50;7.20;;;5.43;;
10347;SDS011;5220;43.192;23.284;2024-02-21T02:27:17;6.68;;;5.38;;
10347;SDS011;5220;43.192;23.284;2024-02-21T02:29:44;5.38;;;4.68;;
10347;SDS011;5220;43.192;23.284;2024-02-21T02:32:11;8.82;;;6.78;;
10347;SDS011;5220;43.192;23.284;2024-02-21T02:34:38;7.50;;;6.70;;
10347;SDS011;5220;43.192;23.284;2024-02-21T02:37:05;6.78;;;5.50;;
10347;SDS011;5220;43.192;23.284;2024-02-21T02:39:31;5.95;;;4.50;;
10347;SDS011;5220;43.192;23.284;2024-02-21T02:41:59;5.15;;;4.57;;
10347;SDS011;5220;43.192;23.284;2024-02-21T02:44:26;4.95;;;4.20;;
10347;SDS011;5220;43.192;23.284;2024-02-21T02:46:53;5.85;;;4.30;;
10347;SDS011;5220;43.192;23.284;2024-02-21T02:49:19;4.95;;;4.45;;
10347;SDS011;5220;43.192;23.284;2024-02-21T02:51:46;5.28;;;4.40;;
10347;SDS011;5220;43.192;23.284;2024-02-21T02:54:12;5.03;;;4.28;;
10347;SDS011;5220;43.192;23.284;2024-02-21T02:56:39;5.35;;;4.70;;
10347;SDS011;5220;43.192;23.284;2024-02-21T02:59:07;5.35;;;4.63;;
10347;SDS011;5220;43.192;23.284;2024-02-21T03:01:34;6.65;;;3.97;;
10347;SDS011;5220;43.192;23.284;2024-02-21T03:04:01;4.85;;;4.30;;
10347;SDS011;5220;43.192;23.284;2024-02-21T03:06:28;5.25;;;4.20;;
10347;SDS011;5220;43.192;23.284;2024-02-21T03:08:54;5.00;;;4.22;;
10347;SDS011;5220;43.192;23.284;2024-02-21T03:11:21;4.60;;;3.90;;
10347;SDS011;5220;43.192;23.284;2024-02-21T03:13:53;5.13;;;3.85;;
10347;SDS011;5220;43.192;23.284;2024-02-21T03:16:22;5.40;;;3.70;;
10347;SDS011;5220;43.192;23.284;2024-02-21T03:18:48;4.55;;;3.30;;
10347;SDS011;5220;43.192;23.284;2024-02-21T03:21:15;3.92;;;3.53;;
10347;SDS011;5220;43.192;23.284;2024-02-21T03:23:42;5.65;;;4.00;;
10347;SDS011;5220;43.192;23.284;2024-02-21T03:26:08;4.10;;;3.65;;
10347;SDS011;5220;43.192;23.284;2024-02-21T03:28:35;5.15;;;3.53;;
10347;SDS011;5220;43.192;23.284;2024-02-21T03:31:02;4.90;;;4.40;;
10347;SDS011;5220;43.192;23.284;2024-02-21T03:33:30;3.83;;;3.53;;
10347;SDS011;5220;43.192;23.284;2024-02-21T03:35:57;3.97;;;3.60;;
10347;SDS011;5220;43.192;23.284;2024-02-21T03:38:23;5.15;;;3.40;;
10347;SDS011;5220;43.192;23.284;2024-02-21T03:40:50;4.18;;;3.83;;
10347;SDS011;5220;43.192;23.284;2024-02-21T03:43:17;7.28;;;3.88;;
10347;SDS011;5220;43.192;23.284;2024-02-21T03:45:43;5.38;;;4.57;;
10347;SDS011;5220;43.192;23.284;2024-02-21T03:48:10;6.25;;;5.07;;
10347;SDS011;5220;43.192;23.284;2024-02-21T03:50:38;6.57;;;4.95;;
10347;SDS011;5220;43.192;23.284;2024-02-21T03:53:05;7.70;;;4.93;;
10347;SDS011;5220;43.192;23.284;2024-02-21T03:55:31;8.30;;;5.47;;
10347;SDS011;5220;43.192;23.284;2024-02-21T03:57:58;8.55;;;5.68;;
10347;SDS011;5220;43.192;23.284;2024-02-21T04:00:25;6.65;;;5.28;;
10347;SDS011;5220;43.192;23.284;2024-02-21T04:02:51;8.68;;;5.63;;
10347;SDS011;5220;43.192;23.284;2024-02-21T04:05:18;10.38;;;6.00;;
10347;SDS011;5220;43.192;23.284;2024-02-21T04:07:46;7.28;;;5.63;;
10347;SDS011;5220;43.192;23.284;2024-02-21T04:10:13;7.78;;;5.22;;
10347;SDS011;5220;43.192;23.284;2024-02-21T04:12:40;7.13;;;5.95;;
10347;SDS011;5220;43.192;23.284;2024-02-21T04:15:07;7.65;;;5.80;;
10347;SDS011;5220;43.192;23.284;2024-02-21T04:17:34;5.95;;;5.30;;
10347;SDS011;5220;43.192;23.284;2024-02-21T04:20:02;6.65;;;5.68;;
10347;SDS011;5220;43.192;23.284;2024-02-21T04:22:30;5.97;;;5.18;;
10347;SDS011;5220;43.192;23.284;2024-02-21T04:24:59;7.30;;;5.70;;
10347;SDS011;5220;43.192;23.284;2024-02-21T04:27:26;5.88;;;4.85;;
10347;SDS011;5220;43.192;23.284;2024-02-21T04:29:53;9.50;;;4.88;;
10347;SDS011;5220;43.192;23.284;2024-02-21T04:32:19;7.20;;;4.70;;
10347;SDS011;5220;43.192;23.284;2024-02-21T04:34:46;5.13;;;3.90;;
10347;SDS011;5220;43.192;23.284;2024-02-21T04:37:13;4.88;;;4.18;;
10347;SDS011;5220;43.192;23.284;2024-02-21T04:39:39;5.75;;;4.10;;
10347;SDS011;5220;43.192;23.284;2024-02-21T04:42:07;5.85;;;4.28;;
10347;SDS011;5220;43.192;23.284;2024-02-21T04:44:34;5.03;;;4.38;;
10347;SDS011;5220;43.192;23.284;2024-02-21T04:47:01;5.43;;;4.93;;
10347;SDS011;5220;43.192;23.284;2024-02-21T04:49:28;5.75;;;4.65;;
10347;SDS011;5220;43.192;23.284;2024-02-21T04:51:55;4.65;;;4.20;;
10347;SDS011;5220;43.192;23.284;2024-02-21T04:54:22;6.82;;;4.70;;
10347;SDS011;5220;43.192;23.284;2024-02-21T04:56:48;4.80;;;3.75;;
10347;SDS011;5220;43.192;23.284;2024-02-21T04:59:16;5.93;;;4.88;;
10347;SDS011;5220;43.192;23.284;2024-02-21T05:01:43;5.88;;;5.03;;
10347;SDS011;5220;43.192;23.284;2024-02-21T05:04:10;5.05;;;3.97;;
10347;SDS011;5220;43.192;23.284;2024-02-21T05:06:37;3.28;;;2.92;;
10347;SDS011;5220;43.192;23.284;2024-02-21T05:09:04;3.05;;;2.60;;
10347;SDS011;5220;43.192;23.284;2024-02-21T05:11:31;3.38;;;2.72;;
10347;SDS011;5220;43.192;23.284;2024-02-21T05:13:58;3.80;;;2.97;;
10347;SDS011;5220;43.192;23.284;2024-02-21T05:16:26;3.05;;;2.80;;
10347;SDS011;5220;43.192;23.284;2024-02-21T05:18:53;11.27;;;7.95;;
10347;SDS011;5220;43.192;23.284;2024-02-21T05:21:21;10.35;;;7.97;;
10347;SDS011;5220;43.192;23.284;2024-02-21T05:23:48;11.77;;;6.28;;
10347;SDS011;5220;43.192;23.284;2024-02-21T05:26:19;7.55;;;4.88;;
10347;SDS011;5220;43.192;23.284;2024-02-21T05:28:46;6.60;;;4.82;;
10347;SDS011;5220;43.192;23.284;2024-02-21T05:31:13;6.00;;;4.18;;
10347;SDS011;5220;43.192;23.284;2024-02-21T05:33:42;5.45;;;3.92;;
10347;SDS011;5220;43.192;23.284;2024-02-21T05:36:08;6.03;;;4.55;;
10347;SDS011;5220;43.192;23.284;2024-02-21T05:38:35;7.30;;;5.03;;
10347;SDS011;5220;43.192;23.284;2024-02-21T05:41:02;6.68;;;4.53;;
10347;SDS011;5220;43.192;23.284;2024-02-21T05:43:29;5.03;;;3.90;;
10347;SDS011;5220;43.192;23.284;2024-02-21T05:45:56;5.30;;;3.80;;
10347;SDS011;5220;43.192;23.284;2024-02-21T05:48:23;6.25;;;3.65;;
10347;SDS011;5220;43.192;23.284;2024-02-21T05:50:51;7.82;;;4.97;;
10347;SDS011;5220;43.192;23.284;2024-02-21T05:53:18;10.50;;;8.05;;
10347;SDS011;5220;43.192;23.284;2024-02-21T05:55:44;9.05;;;7.10;;
10347;SDS011;5220;43.192;23.284;2024-02-21T05:58:11;9.70;;;7.28;;
10347;SDS011;5220;43.192;23.284;2024-02-21T06:00:38;8.10;;;6.40;;
10347;SDS011;5220;43.192;23.284;2024-02-21T06:03:07;6.97;;;4.85;;
10347;SDS011;5220;43.192;23.284;2024-02-21T06:05:36;5.47;;;4.30;;
10347;SDS011;5220;43.192;23.284;2024-02-21T06:08:05;8.57;;;6.43;;
10347;SDS011;5220;43.192;23.284;2024-02-21T06:10:33;7.93;;;5.72;;
10347;SDS011;5220;43.192;23.284;2024-02-21T06:12:59;8.93;;;6.57;;
10347;SDS011;5220;43.192;23.284;2024-02-21T06:15:26;8.85;;;6.85;;
10347;SDS011;5220;43.192;23.284;2024-02-21T06:17:53;7.28;;;5.97;;
10347;SDS011;5220;43.192;23.284;2024-02-21T06:20:19;10.50;;;7.35;;
10347;SDS011;5220;43.192;23.284;2024-02-21T06:22:46;9.18;;;6.60;;
10347;SDS011;5220;43.192;23.284;2024-02-21T06:25:14;9.32;;;4.90;;
10347;SDS011;5220;43.192;23.284;2024-02-21T06:27:41;6.85;;;4.70;;
10347;SDS011;5220;43.192;23.284;2024-02-21T06:30:08;4.63;;;4.03;;
10347;SDS011;5220;43.192;23.284;2024-02-21T06:32:35;5.75;;;4.38;;
10347;SDS011;5220;43.192;23.284;2024-02-21T06:35:03;7.20;;;4.95;;
10347;SDS011;5220;43.192;23.284;2024-02-21T06:37:30;5.45;;;4.50;;
10347;SDS011;5220;43.192;23.284;2024-02-21T06:39:57;4.45;;;3.30;;
10347;SDS011;5220;43.192;23.284;2024-02-21T06:42:25;2.30;;;2.10;;
10347;SDS011;5220;43.192;23.284;2024-02-21T06:44:52;4.65;;;2.20;;
10347;SDS011;5220;43.192;23.284;2024-02-21T06:47:18;2.42;;;2.17;;
10347;SDS011;5220;43.192;23.284;2024-02-21T06:49:48;2.03;;;1.73;;
10347;SDS011;5220;43.192;23.284;2024-02-21T06:52:15;3.17;;;1.60;;
10347;SDS011;5220;43.192;23.284;2024-02-21T06:54:45;7.38;;;2.25;;
10347;SDS011;5220;43.192;23.284;2024-02-21T06:57:12;2.33;;;2.03;;
10347;SDS011;5220;43.192;23.284;2024-02-21T06:59:40;3.38;;;1.80;;
10347;SDS011;5220;43.192;23.284;2024-02-21T07:02:06;2.45;;;1.70;;
10347;SDS011;5220;43.192;23.284;2024-02-21T07:04:33;2.63;;;2.08;;
10347;SDS011;5220;43.192;23.284;2024-02-21T07:07:00;2.13;;;1.92;;
10347;SDS011;5220;43.192;23.284;2024-02-21T07:09:27;2.85;;;2.65;;
10347;SDS011;5220;43.192;23.284;2024-02-21T07:11:53;3.58;;;3.28;;
10347;SDS011;5220;43.192;23.284;2024-02-21T07:14:21;8.10;;;7.22;;
10347;SDS011;5220;43.192;23.284;2024-02-21T07:16:49;4.30;;;3.17;;
10347;SDS011;5220;43.192;23.284;2024-02-21T07:19:16;2.45;;;2.25;;
10347;SDS011;5220;43.192;23.284;2024-02-21T07:21:43;2.97;;;2.78;;
10347;SDS011;5220;43.192;23.284;2024-02-21T07:24:09;6.28;;;5.05;;
10347;SDS011;5220;43.192;23.284;2024-02-21T07:26:36;3.97;;;3.58;;
10347;SDS011;5220;43.192;23.284;2024-02-21T07:29:03;4.13;;;3.72;;
10347;SDS011;5220;43.192;23.284;2024-02-21T07:31:30;6.95;;;5.22;;
10347;SDS011;5220;43.192;23.284;2024-02-21T07:33:58;5.43;;;4.82;;
10347;SDS011;5220;43.192;23.284;2024-02-21T07:36:27;5.07;;;4.57;;
10347;SDS011;5220;43.192;23.284;2024-02-21T07:38:55;6.07;;;5.47;;
10347;SDS011;5220;43.192;23.284;2024-02-21T07:41:22;7.60;;;6.30;;
10347;SDS011;5220;43.192;23.284;2024-02-21T07:43:48;10.35;;;8.02;;
10347;SDS011;5220;43.192;23.284;2024-02-21T07:46:15;7.78;;;6.97;;
10347;SDS011;5220;43.192;23.284;2024-02-21T07:48:42;7.15;;;6.20;;
10347;SDS011;5220;43.192;23.284;2024-02-21T07:51:10;8.00;;;6.28;;
10347;SDS011;5220;43.192;23.284;2024-02-21T07:53:38;7.97;;;4.82;;
10347;SDS011;5220;43.192;23.284;2024-02-21T07:56:09;5.93;;;4.68;;
10347;SDS011;5220;43.192;23.284;2024-02-21T07:58:36;3.63;;;3.33;;
10347;SDS011;5220;43.192;23.284;2024-02-21T08:01:03;5.07;;;4.07;;
10347;SDS011;5220;43.192;23.284;2024-02-21T08:03:29;3.75;;;3.45;;
10347;SDS011;5220;43.192;23.284;2024-02-21T08:05:56;3.60;;;3.30;;
10347;SDS011;5220;43.192;23.284;2024-02-21T08:08:24;4.35;;;3.95;;
10347;SDS011;5220;43.192;23.284;2024-02-21T08:10:51;6.50;;;5.53;;
10347;SDS011;5220;43.192;23.284;2024-02-21T08:13:18;5.18;;;4.38;;
10347;SDS011;5220;43.192;23.284;2024-02-21T08:15:46;4.90;;;4.00;;
10347;SDS011;5220;43.192;23.284;2024-02-21T08:18:12;4.03;;;3.15;;
10347;SDS011;5220;43.192;23.284;2024-02-21T08:20:39;4.38;;;3.70;;
10347;SDS011;5220;43.192;23.284;2024-02-21T08:23:06;3.90;;;3.40;;
10347;SDS011;5220;43.192;23.284;2024-02-21T08:25:34;3.67;;;3.10;;
10347;SDS011;5220;43.192;23.284;2024-02-21T08:28:00;3.72;;;3.38;;
10347;SDS011;5220;43.192;23.284;2024-02-21T08:30:27;3.15;;;2.92;;
10347;SDS011;5220;43.192;23.284;2024-02-21T08:32:54;4.60;;;3.25;;
10347;SDS011;5220;43.192;23.284;2024-02-21T08:35:20;3.88;;;3.58;;
10347;SDS011;5220;43.192;23.284;2024-02-21T08:37:48;3.20;;;2.90;;
10347;SDS011;5220;43.192;23.284;2024-02-21T08:40:15;4.13;;;2.90;;
10347;SDS011;5220;43.192;23.284;2024-02-21T08:42:47;4.28;;;3.60;;
10347;SDS011;5220;43.192;23.284;2024-02-21T08:45:14;4.20;;;3.25;;
10347;SDS011;5220;43.192;23.284;2024-02-21T08:47:41;3.60;;;3.28;;
10347;SDS011;5220;43.192;23.284;2024-02-21T08:50:08;3.63;;;3.25;;
10347;SDS011;5220;43.192;23.284;2024-02-21T08:52:36;9.38;;;7.00;;
10347;SDS011;5220;43.192;23.284;2024-02-21T08:55:03;5.97;;;5.38;;
10347;SDS011;5220;43.192;23.284;2024-02-21T08:57:30;4.13;;;3.72;;
10347;SDS011;5220;43.192;23.284;2024-02-21T09:00:03;3.08;;;2.88;;
10347;SDS011;5220;43.192;23.284;2024-02-21T09:02:34;3.08;;;2.78;;
10347;SDS011;5220;43.192;23.284;2024-02-21T09:05:03;3.20;;;2.72;;
10347;SDS011;5220;43.192;23.284;2024-02-21T09:07:31;2.67;;;2.47;;
10347;SDS011;5220;43.192;23.284;2024-02-21T09:09:57;2.97;;;2.55;;
10347;SDS011;5220;43.192;23.284;2024-02-21T09:12:24;3.60;;;2.50;;
10347;SDS011;5220;43.192;23.284;2024-02-21T09:14:51;2.83;;;2.63;;
10347;SDS011;5220;43.192;23.284;2024-02-21T09:17:19;4.25;;;2.80;;
10347;SDS011;5220;43.192;23.284;2024-02-21T09:19:46;4.50;;;3.10;;
10347;SDS011;5220;43.192;23.284;2024-02-21T09:22:13;4.63;;;4.22;;
10347;SDS011;5220;43.192;23.284;2024-02-21T09:24:40;2.75;;;2.55;;
10347;SDS011;5220;43.192;23.284;2024-02-21T09:27:06;2.90;;;2.70;;
10347;SDS011;5220;43.192;23.284;2024-02-21T09:29:33;2.55;;;2.35;;
10347;SDS011;5220;43.192;23.284;2024-02-21T09:32:00;3.10;;;2.50;;
10347;SDS011;5220;43.192;23.284;2024-02-21T09:34:29;2.90;;;2.65;;
10347;SDS011;5220;43.192;23.284;2024-02-21T09:36:55;3.92;;;2.78;;
10347;SDS011;5220;43.192;23.284;2024-02-21T09:39:22;3.13;;;2.83;;
10347;SDS011;5220;43.192;23.284;2024-02-21T09:41:50;9.25;;;6.82;;
10347;SDS011;5220;43.192;23.284;2024-02-21T09:44:20;6.68;;;3.20;;
10347;SDS011;5220;43.192;23.284;2024-02-21T09:46:50;6.10;;;3.55;;
10347;SDS011;5220;43.192;23.284;2024-02-21T09:49:23;5.40;;;3.97;;
10347;SDS011;5220;43.192;23.284;2024-02-21T09:51:56;18.27;;;12.55;;
10347;SDS011;5220;43.192;23.284;2024-02-21T09:54:28;23.50;;;16.17;;
10347;SDS011;5220;43.192;23.284;2024-02-21T09:56:55;17.48;;;10.80;;
10347;SDS011;5220;43.192;23.284;2024-02-21T09:59:22;7.13;;;5.35;;
10347;SDS011;5220;43.192;23.284;2024-02-21T10:01:50;5.53;;;4.13;;
10347;SDS011;5220;43.192;23.284;2024-02-21T10:04:17;5.40;;;4.90;;
10347;SDS011;5220;43.192;23.284;2024-02-21T10:06:45;4.45;;;3.40;;
10347;SDS011;5220;43.192;23.284;2024-02-21T10:09:20;3.10;;;2.80;;
10347;SDS011;5220;43.192;23.284;2024-02-21T10:11:48;3.63;;;3.00;;
10347;SDS011;5220;43.192;23.284;2024-02-21T10:14:15;3.05;;;2.75;;
10347;SDS011;5220;43.192;23.284;2024-02-21T10:16:42;2.63;;;2.42;;
10347;SDS011;5220;43.192;23.284;2024-02-21T10:19:15;3.50;;;2.67;;
10347;SDS011;5220;43.192;23.284;2024-02-21T10:21:42;5.10;;;4.00;;
10347;SDS011;5220;43.192;23.284;2024-02-21T10:24:11;5.65;;;4.80;;
10347;SDS011;5220;43.192;23.284;2024-02-21T10:26:38;6.60;;;4.57;;
10347;SDS011;5220;43.192;23.284;2024-02-21T10:29:06;6.70;;;4.45;;
10347;SDS011;5220;43.192;23.284;2024-02-21T10:31:33;4.80;;;3.30;;
10347;SDS011;5220;43.192;23.284;2024-02-21T10:34:00;4.07;;;3.63;;
10347;SDS011;5220;43.192;23.284;2024-02-21T10:36:28;6.50;;;5.13;;
10347;SDS011;5220;43.192;23.284;2024-02-21T10:38:55;5.57;;;4.80;;
10347;SDS011;5220;43.192;23.284;2024-02-21T10:41:24;5.78;;;4.38;;
10347;SDS011;5220;43.192;23.284;2024-02-21T10:43:52;4.75;;;4.35;;
10347;SDS011;5220;43.192;23.284;2024-02-21T10:46:20;6.15;;;4.80;;
10347;SDS011;5220;43.192;23.284;2024-02-21T10:48:48;7.22;;;5.22;;
10347;SDS011;5220;43.192;23.284;2024-02-21T10:51:26;9.10;;;7.57;;
10347;SDS011;5220;43.192;23.284;2024-02-21T10:53:58;10.45;;;7.07;;
10347;SDS011;5220;43.192;23.284;2024-02-21T10:56:36;7.18;;;5.75;;
10347;SDS011;5220;43.192;23.284;2024-02-21T10:59:07;11.90;;;9.75;;
10347;SDS011;5220;43.192;23.284;2024-02-21T11:01:34;13.63;;;9.13;;
10347;SDS011;5220;43.192;23.284;2024-02-21T11:04:02;8.70;;;6.10;;
10347;SDS011;5220;43.192;23.284;2024-02-21T11:06:30;7.20;;;6.50;;
10347;SDS011;5220;43.192;23.284;2024-02-21T11:08:59;7.97;;;6.38;;
10347;SDS011;5220;43.192;23.284;2024-02-21T11:11:30;8.88;;;5.65;;
10347;SDS011;5220;43.192;23.284;2024-02-21T11:14:08;16.40;;;10.57;;
10347;SDS011;5220;43.192;23.284;2024-02-21T11:16:36;9.15;;;7.60;;
10347;SDS011;5220;43.192;23.284;2024-02-21T11:19:07;8.32;;;6.82;;
10347;SDS011;5220;43.192;23.284;2024-02-21T11:21:35;8.27;;;6.90;;
10347;SDS011;5220;43.192;23.284;2024-02-21T11:24:01;9.40;;;8.13;;
10347;SDS011;5220;43.192;23.284;2024-02-21T11:26:28;7.20;;;5.68;;
10347;SDS011;5220;43.192;23.284;2024-02-21T11:28:56;7.93;;;5.38;;
10347;SDS011;5220;43.192;23.284;2024-02-21T11:31:26;7.50;;;6.10;;
10347;SDS011;5220;43.192;23.284;2024-02-21T11:33:53;7.25;;;5.90;;
10347;SDS011;5220;43.192;23.284;2024-02-21T11:36:24;13.75;;;9.85;;
10347;SDS011;5220;43.192;23.284;2024-02-21T11:38:51;5.20;;;4.70;;
10347;SDS011;5220;43.192;23.284;2024-02-21T11:41:19;6.97;;;6.07;;
10347;SDS011;5220;43.192;23.284;2024-02-21T11:43:46;8.77;;;7.88;;
10347;SDS011;5220;43.192;23.284;2024-02-21T11:46:15;10.27;;;8.35;;
10347;SDS011;5220;43.192;23.284;2024-02-21T11:48:44;11.98;;;8.02;;
10347;SDS011;5220;43.192;23.284;2024-02-21T11:51:20;13.15;;;9.15;;
10347;SDS011;5220;43.192;23.284;2024-02-21T11:53:50;15.18;;;11.35;;
10347;SDS011;5220;43.192;23.284;2024-02-21T11:56:17;8.65;;;6.90;;
10347;SDS011;5220;43.192;23.284;2024-02-21T11:58:44;7.88;;;6.78;;
10347;SDS011;5220;43.192;23.284;2024-02-21T12:01:12;8.25;;;5.72;;
10347;SDS011;5220;43.192;23.284;2024-02-21T12:03:39;5.88;;;5.07;;
10347;SDS011;5220;43.192;23.284;2024-02-21T12:06:07;5.97;;;5.35;;
10347;SDS011;5220;43.192;23.284;2024-02-21T12:08:40;6.78;;;5.00;;
10347;SDS011;5220;43.192;23.284;2024-02-21T12:11:15;19.67;;;11.73;;
10347;SDS011;5220;43.192;23.284;2024-02-21T12:13:44;6.75;;;4.90;;
10347;SDS011;5220;43.192;23.284;2024-02-21T12:16:14;4.50;;;4.10;;
10347;SDS011;5220;43.192;23.284;2024-02-21T12:18:43;5.60;;;4.60;;
10347;SDS011;5220;43.192;23.284;2024-02-21T12:21:11;5.22;;;4.72;;
10347;SDS011;5220;43.192;23.284;2024-02-21T12:23:37;6.53;;;5.60;;
10347;SDS011;5220;43.192;23.284;2024-02-21T12:26:04;11.40;;;9.23;;
10347;SDS011;5220;43.192;23.284;2024-02-21T12:28:31;6.47;;;5.10;;
10347;SDS011;5220;43.192;23.284;2024-02-21T12:30:58;6.32;;;4.75;;
10347;SDS011;5220;43.192;23.284;2024-02-21T12:33:25;4.38;;;3.90;;
10347;SDS011;5220;43.192;23.284;2024-02-21T12:35:52;6.57;;;5.68;;
10347;SDS011;5220;43.192;23.284;2024-02-21T12:38:21;5.50;;;3.88;;
10347;SDS011;5220;43.192;23.284;2024-02-21T12:40:48;4.90;;;4.38;;
10347;SDS011;5220;43.192;23.284;2024-02-21T12:43:14;4.18;;;3.85;;
10347;SDS011;5220;43.192;23.284;2024-02-21T12:45:41;6.78;;;4.63;;
10347;SDS011;5220;43.192;23.284;2024-02-21T12:48:08;5.38;;;4.88;;
10347;SDS011;5220;43.192;23.284;2024-02-21T12:50:34;5.18;;;4.35;;
10347;SDS011;5220;43.192;23.284;2024-02-21T12:53:01;5.65;;;4.78;;
10347;SDS011;5220;43.192;23.284;2024-02-21T12:55:30;5.75;;;5.10;;
10347;SDS011;5220;43.192;23.284;2024-02-21T12:57:56;5.57;;;5.07;;
10347;SDS011;5220;43.192;23.284;2024-02-21T13:00:30;5.38;;;4.18;;
10347;SDS011;5220;43.192;23.284;2024-02-21T13:02:57;5.95;;;4.90;;
10347;SDS011;5220;43.192;23.284;2024-02-21T13:05:23;5.97;;;4.95;;
10347;SDS011;5220;43.192;23.284;2024-02-21T13:07:50;3.47;;;3.17;;
10347;SDS011;5220;43.192;23.284;2024-02-21T13:10:17;4.70;;;3.50;;
10347;SDS011;5220;43.192;23.284;2024-02-21T13:12:45;4.00;;;3.70;;
10347;SDS011;5220;43.192;23.284;2024-02-21T13:15:11;2.97;;;2.67;;
10347;SDS011;5220;43.192;23.284;2024-02-21T13:17:38;7.35;;;5.78;;
10347;SDS011;5220;43.192;23.284;2024-02-21T13:20:05;3.47;;;3.17;;
10347;SDS011;5220;43.192;23.284;2024-02-21T13:22:33;4.07;;;3.53;;
10347;SDS011;5220;43.192;23.284;2024-02-21T13:25:00;10.82;;;7.78;;
10347;SDS011;5220;43.192;23.284;2024-02-21T13:27:27;4.40;;;3.95;;
10347;SDS011;5220;43.192;23.284;2024-02-21T13:29:55;4.53;;;4.10;;
10347;SDS011;5220;43.192;23.284;2024-02-21T13:32:22;4.15;;;3.65;;
10347;SDS011;5220;43.192;23.284;2024-02-21T13:34:48;5.35;;;4.00;;
10347;SDS011;5220;43.192;23.284;2024-02-21T13:37:17;5.38;;;3.92;;
10347;SDS011;5220;43.192;23.284;2024-02-21T13:39:44;9.43;;;7.25;;
10347;SDS011;5220;43.192;23.284;2024-02-21T13:42:12;24.42;;;16.05;;
10347;SDS011;5220;43.192;23.284;2024-02-21T13:44:39;7.88;;;6.63;;
10347;SDS011;5220;43.192;23.284;2024-02-21T13:47:07;6.68;;;5.70;;
10347;SDS011;5220;43.192;23.284;2024-02-21T13:49:34;5.97;;;5.10;;
10347;SDS011;5220;43.192;23.284;2024-02-21T13:52:01;5.00;;;4.60;;
10347;SDS011;5220;43.192;23.284;2024-02-21T13:54:28;5.07;;;4.60;;
10347;SDS011;5220;43.192;23.284;2024-02-21T13:56:55;10.35;;;9.25;;
10347;SDS011;5220;43.192;23.284;2024-02-21T13:59:21;7.07;;;6.25;;
10347;SDS011;5220;43.192;23.284;2024-02-21T14:01:48;6.13;;;4.65;;
10347;SDS011;5220;43.192;23.284;2024-02-21T14:04:17;4.80;;;4.13;;
10347;SDS011;5220;43.192;23.284;2024-02-21T14:06:43;10.20;;;6.88;;
10347;SDS011;5220;43.192;23.284;2024-02-21T14:09:10;10.68;;;7.82;;
10347;SDS011;5220;43.192;23.284;2024-02-21T14:11:37;9.77;;;7.95;;
10347;SDS011;5220;43.192;23.284;2024-02-21T14:14:05;10.48;;;8.57;;
10347;SDS011;5220;43.192;23.284;2024-02-21T14:16:31;17.98;;;15.35;;
10347;SDS011;5220;43.192;23.284;2024-02-21T14:18:58;40.30;;;27.30;;
10347;SDS011;5220;43.192;23.284;2024-02-21T14:21:26;30.10;;;21.35;;
10347;SDS011;5220;43.192;23.284;2024-02-21T14:23:53;32.58;;;23.27;;
10347;SDS011;5220;43.192;23.284;2024-02-21T14:26:21;21.48;;;16.52;;
10347;SDS011;5220;43.192;23.284;2024-02-21T14:28:48;20.63;;;15.05;;
10347;SDS011;5220;43.192;23.284;2024-02-21T14:31:15;16.83;;;13.57;;
10347;SDS011;5220;43.192;23.284;2024-02-21T14:33:42;21.73;;;16.10;;
10347;SDS011;5220;43.192;23.284;2024-02-21T14:36:11;15.52;;;13.45;;
10347;SDS011;5220;43.192;23.284;2024-02-21T14:38:39;16.80;;;13.25;;
10347;SDS011;5220;43.192;23.284;2024-02-21T14:41:06;15.27;;;12.30;;
10347;SDS011;5220;43.192;23.284;2024-02-21T14:43:33;13.50;;;11.45;;
10347;SDS011;5220;43.192;23.284;2024-02-21T14:46:00;13.30;;;11.27;;